sensor_id;sensor_type;location;lat;lon;timestamp;P1;durP1;ratioP1;P2;durP2;ratioP2
4806;SDS011;2417;52.482;13.432;2023-07-08T00:00:57;63.30;;;8.83;;
4806;SDS011;2417;52.482;13.432;2023-07-08T00:03:25;65.00;;;14.27;;
4806;SDS011;2417;52.482;13.432;2023-07-08T00:05:53;74.00;;;18.40;;
4806;SDS011;2417;52.482;13.432;2023-07-08T00:08:23;53.60;;;8.93;;
4806;SDS011;2417;52.482;13.432;2023-07-08T00:10:52;53.13;;;8.50;;
4806;SDS011;2417;52.482;13.432;2023-07-08T00:13:45;55.73;;;9.23;;
4806;SDS011;2417;52.482;13.432;2023-07-08T00:16:14;57.77;;;11.87;;
4806;SDS011;2417;52.482;13.432;2023-07-08T00:18:44;50.50;;;8.27;;
4806;SDS011;2417;52.482;13.432;2023-07-08T00:21:14;58.03;;;11.40;;
4806;SDS011;2417;52.482;13.432;2023-07-08T00:23:43;55.27;;;9.90;;
4806;SDS011;2417;52.482;13.432;2023-07-08T00:26:13;82.23;;;21.20;;
4806;SDS011;2417;52.482;13.432;2023-07-08T00:28:44;87.47;;;23.23;;
4806;SDS011;2417;52.482;13.432;2023-07-08T00:31:13;64.93;;;15.23;;
4806;SDS011;2417;52.482;13.432;2023-07-08T00:33:41;82.87;;;23.40;;
4806;SDS011;2417;52.482;13.432;2023-07-08T00:36:11;55.60;;;11.10;;
4806;SDS011;2417;52.482;13.432;2023-07-08T00:38:40;67.13;;;17.00;;
4806;SDS011;2417;52.482;13.432;2023-07-08T00:41:14;60.43;;;14.57;;
4806;SDS011;2417;52.482;13.432;2023-07-08T00:43:44;51.47;;;10.50;;
4806;SDS011;2417;52.482;13.432;2023-07-08T00:46:16;88.40;;;28.70;;
4806;SDS011;2417;52.482;13.432;2023-07-08T00:48:48;62.27;;;15.57;;
4806;SDS011;2417;52.482;13.432;2023-07-08T00:51:17;60.10;;;12.93;;
4806;SDS011;2417;52.482;13.432;2023-07-08T00:53:46;55.57;;;12.47;;
4806;SDS011;2417;52.482;13.432;2023-07-08T00:56:17;60.80;;;15.57;;
4806;SDS011;2417;52.482;13.432;2023-07-08T00:58:47;54.73;;;11.33;;
4806;SDS011;2417;52.482;13.432;2023-07-08T01:01:17;50.03;;;9.50;;
4806;SDS011;2417;52.482;13.432;2023-07-08T01:03:46;57.63;;;12.13;;
4806;SDS011;2417;52.482;13.432;2023-07-08T01:06:16;54.40;;;12.57;;
4806;SDS011;2417;52.482;13.432;2023-07-08T01:08:44;52.40;;;10.50;;
4806;SDS011;2417;52.482;13.432;2023-07-08T01:11:13;52.43;;;9.57;;
4806;SDS011;2417;52.482;13.432;2023-07-08T01:13:43;58.60;;;13.07;;
4806;SDS011;2417;52.482;13.432;2023-07-08T01:16:14;55.67;;;12.70;;
4806;SDS011;2417;52.482;13.432;2023-07-08T01:18:43;52.90;;;12.57;;
4806;SDS011;2417;52.482;13.432;2023-07-08T01:21:29;55.40;;;9.87;;
4806;SDS011;2417;52.482;13.432;2023-07-08T01:24:00;49.60;;;9.00;;
4806;SDS011;2417;52.482;13.432;2023-07-08T01:26:29;46.53;;;7.67;;
4806;SDS011;2417;52.482;13.432;2023-07-08T01:28:58;48.80;;;9.00;;
4806;SDS011;2417;52.482;13.432;2023-07-08T01:31:26;45.73;;;7.33;;
4806;SDS011;2417;52.482;13.432;2023-07-08T01:33:54;47.90;;;7.83;;
4806;SDS011;2417;52.482;13.432;2023-07-08T01:36:23;49.03;;;8.07;;
4806;SDS011;2417;52.482;13.432;2023-07-08T01:38:52;48.23;;;8.17;;
4806;SDS011;2417;52.482;13.432;2023-07-08T01:41:21;49.30;;;7.50;;
4806;SDS011;2417;52.482;13.432;2023-07-08T01:43:49;54.10;;;8.20;;
4806;SDS011;2417;52.482;13.432;2023-07-08T01:46:17;50.50;;;8.40;;
4806;SDS011;2417;52.482;13.432;2023-07-08T01:48:46;47.33;;;7.63;;
4806;SDS011;2417;52.482;13.432;2023-07-08T01:51:15;46.00;;;7.87;;
4806;SDS011;2417;52.482;13.432;2023-07-08T01:53:43;44.40;;;7.33;;
4806;SDS011;2417;52.482;13.432;2023-07-08T01:56:12;48.97;;;8.00;;
4806;SDS011;2417;52.482;13.432;2023-07-08T01:58:42;45.00;;;7.43;;
4806;SDS011;2417;52.482;13.432;2023-07-08T02:01:10;46.00;;;7.37;;
4806;SDS011;2417;52.482;13.432;2023-07-08T02:03:37;47.70;;;7.53;;
4806;SDS011;2417;52.482;13.432;2023-07-08T02:06:10;52.80;;;8.47;;
4806;SDS011;2417;52.482;13.432;2023-07-08T02:08:38;45.07;;;7.33;;
4806;SDS011;2417;52.482;13.432;2023-07-08T02:11:06;45.40;;;6.90;;
4806;SDS011;2417;52.482;13.432;2023-07-08T02:13:34;44.70;;;6.70;;
4806;SDS011;2417;52.482;13.432;2023-07-08T02:16:04;56.23;;;13.27;;
4806;SDS011;2417;52.482;13.432;2023-07-08T02:18:34;48.20;;;6.90;;
4806;SDS011;2417;52.482;13.432;2023-07-08T02:21:01;62.03;;;14.00;;
4806;SDS011;2417;52.482;13.432;2023-07-08T02:23:29;51.93;;;9.70;;
4806;SDS011;2417;52.482;13.432;2023-07-08T02:25:58;53.47;;;10.50;;
4806;SDS011;2417;52.482;13.432;2023-07-08T02:28:26;48.20;;;6.97;;
4806;SDS011;2417;52.482;13.432;2023-07-08T02:30:54;44.93;;;7.10;;
4806;SDS011;2417;52.482;13.432;2023-07-08T02:33:23;44.90;;;6.90;;
4806;SDS011;2417;52.482;13.432;2023-07-08T02:35:54;47.27;;;7.80;;
4806;SDS011;2417;52.482;13.432;2023-07-08T02:38:22;47.27;;;8.20;;
4806;SDS011;2417;52.482;13.432;2023-07-08T02:40:50;46.93;;;6.90;;
4806;SDS011;2417;52.482;13.432;2023-07-08T02:43:18;42.77;;;6.30;;
4806;SDS011;2417;52.482;13.432;2023-07-08T02:45:48;46.40;;;7.27;;
4806;SDS011;2417;52.482;13.432;2023-07-08T02:48:16;45.00;;;6.77;;
4806;SDS011;2417;52.482;13.432;2023-07-08T02:50:46;43.07;;;6.70;;
4806;SDS011;2417;52.482;13.432;2023-07-08T02:53:14;42.83;;;6.43;;
4806;SDS011;2417;52.482;13.432;2023-07-08T02:55:42;42.37;;;6.47;;
4806;SDS011;2417;52.482;13.432;2023-07-08T02:58:10;43.30;;;6.70;;
4806;SDS011;2417;52.482;13.432;2023-07-08T03:00:38;50.10;;;6.50;;
4806;SDS011;2417;52.482;13.432;2023-07-08T03:03:06;44.63;;;6.80;;
4806;SDS011;2417;52.482;13.432;2023-07-08T03:05:34;46.27;;;6.90;;
4806;SDS011;2417;52.482;13.432;2023-07-08T03:08:04;44.47;;;6.40;;
4806;SDS011;2417;52.482;13.432;2023-07-08T03:10:33;54.23;;;7.00;;
4806;SDS011;2417;52.482;13.432;2023-07-08T03:13:01;43.47;;;6.50;;
4806;SDS011;2417;52.482;13.432;2023-07-08T03:15:30;44.40;;;7.07;;
4806;SDS011;2417;52.482;13.432;2023-07-08T03:17:58;42.47;;;6.63;;
4806;SDS011;2417;52.482;13.432;2023-07-08T03:20:29;43.00;;;6.40;;
4806;SDS011;2417;52.482;13.432;2023-07-08T03:22:59;43.30;;;6.93;;
4806;SDS011;2417;52.482;13.432;2023-07-08T03:25:28;44.00;;;7.10;;
4806;SDS011;2417;52.482;13.432;2023-07-08T03:27:56;42.20;;;6.50;;
4806;SDS011;2417;52.482;13.432;2023-07-08T03:30:26;45.63;;;6.27;;
4806;SDS011;2417;52.482;13.432;2023-07-08T03:32:54;43.60;;;7.13;;
4806;SDS011;2417;52.482;13.432;2023-07-08T03:35:22;45.67;;;7.03;;
4806;SDS011;2417;52.482;13.432;2023-07-08T03:37:51;44.90;;;6.80;;
4806;SDS011;2417;52.482;13.432;2023-07-08T03:40:19;43.87;;;6.97;;
4806;SDS011;2417;52.482;13.432;2023-07-08T03:42:48;42.27;;;6.60;;
4806;SDS011;2417;52.482;13.432;2023-07-08T03:45:16;43.07;;;7.13;;
4806;SDS011;2417;52.482;13.432;2023-07-08T03:47:44;43.30;;;6.77;;
4806;SDS011;2417;52.482;13.432;2023-07-08T03:50:14;46.93;;;6.80;;
4806;SDS011;2417;52.482;13.432;2023-07-08T03:52:44;42.53;;;6.00;;
4806;SDS011;2417;52.482;13.432;2023-07-08T03:55:12;42.83;;;6.73;;
4806;SDS011;2417;52.482;13.432;2023-07-08T03:57:41;44.57;;;6.77;;
4806;SDS011;2417;52.482;13.432;2023-07-08T04:00:12;51.70;;;6.33;;
4806;SDS011;2417;52.482;13.432;2023-07-08T04:02:41;52.93;;;6.80;;
4806;SDS011;2417;52.482;13.432;2023-07-08T04:05:14;43.67;;;6.90;;
4806;SDS011;2417;52.482;13.432;2023-07-08T04:07:42;41.73;;;6.20;;
4806;SDS011;2417;52.482;13.432;2023-07-08T04:10:10;41.60;;;6.17;;
4806;SDS011;2417;52.482;13.432;2023-07-08T04:12:39;43.40;;;6.63;;
4806;SDS011;2417;52.482;13.432;2023-07-08T04:15:08;41.70;;;5.90;;
4806;SDS011;2417;52.482;13.432;2023-07-08T04:17:38;44.47;;;6.83;;
4806;SDS011;2417;52.482;13.432;2023-07-08T04:20:08;42.80;;;7.03;;
4806;SDS011;2417;52.482;13.432;2023-07-08T04:23:00;43.97;;;7.00;;
4806;SDS011;2417;52.482;13.432;2023-07-08T04:25:28;42.07;;;6.43;;
4806;SDS011;2417;52.482;13.432;2023-07-08T04:27:56;43.37;;;7.00;;
4806;SDS011;2417;52.482;13.432;2023-07-08T04:30:24;41.90;;;6.60;;
4806;SDS011;2417;52.482;13.432;2023-07-08T04:32:54;61.27;;;6.10;;
4806;SDS011;2417;52.482;13.432;2023-07-08T04:35:23;42.67;;;6.67;;
4806;SDS011;2417;52.482;13.432;2023-07-08T04:37:51;44.00;;;6.90;;
4806;SDS011;2417;52.482;13.432;2023-07-08T04:40:21;44.30;;;6.33;;
4806;SDS011;2417;52.482;13.432;2023-07-08T04:42:49;50.53;;;6.90;;
4806;SDS011;2417;52.482;13.432;2023-07-08T04:45:18;45.47;;;6.40;;
4806;SDS011;2417;52.482;13.432;2023-07-08T04:47:46;43.20;;;5.70;;
4806;SDS011;2417;52.482;13.432;2023-07-08T04:50:21;45.37;;;6.40;;
4806;SDS011;2417;52.482;13.432;2023-07-08T04:52:50;46.60;;;6.57;;
4806;SDS011;2417;52.482;13.432;2023-07-08T04:55:18;45.60;;;6.43;;
4806;SDS011;2417;52.482;13.432;2023-07-08T04:57:46;51.57;;;6.30;;
4806;SDS011;2417;52.482;13.432;2023-07-08T05:00:15;46.87;;;6.77;;
4806;SDS011;2417;52.482;13.432;2023-07-08T05:02:44;53.13;;;6.20;;
4806;SDS011;2417;52.482;13.432;2023-07-08T05:05:12;55.23;;;6.33;;
4806;SDS011;2417;52.482;13.432;2023-07-08T05:07:41;45.40;;;5.60;;
4806;SDS011;2417;52.482;13.432;2023-07-08T05:10:10;52.37;;;6.77;;
4806;SDS011;2417;52.482;13.432;2023-07-08T05:12:38;49.73;;;6.60;;
4806;SDS011;2417;52.482;13.432;2023-07-08T05:15:06;57.00;;;7.23;;
4806;SDS011;2417;52.482;13.432;2023-07-08T05:17:34;49.23;;;6.33;;
4806;SDS011;2417;52.482;13.432;2023-07-08T05:20:02;46.50;;;6.50;;
4806;SDS011;2417;52.482;13.432;2023-07-08T05:22:31;55.33;;;7.43;;
4806;SDS011;2417;52.482;13.432;2023-07-08T05:25:00;50.90;;;6.83;;
4806;SDS011;2417;52.482;13.432;2023-07-08T05:27:30;48.30;;;6.60;;
4806;SDS011;2417;52.482;13.432;2023-07-08T05:29:59;46.00;;;6.30;;
4806;SDS011;2417;52.482;13.432;2023-07-08T05:32:27;47.47;;;6.67;;
4806;SDS011;2417;52.482;13.432;2023-07-08T05:34:57;50.07;;;6.37;;
4806;SDS011;2417;52.482;13.432;2023-07-08T05:37:25;45.80;;;5.90;;
4806;SDS011;2417;52.482;13.432;2023-07-08T05:39:55;48.17;;;5.90;;
4806;SDS011;2417;52.482;13.432;2023-07-08T05:42:24;51.23;;;6.73;;
4806;SDS011;2417;52.482;13.432;2023-07-08T05:44:54;47.30;;;6.70;;
4806;SDS011;2417;52.482;13.432;2023-07-08T05:47:22;47.93;;;6.57;;
4806;SDS011;2417;52.482;13.432;2023-07-08T05:49:50;48.77;;;6.83;;
4806;SDS011;2417;52.482;13.432;2023-07-08T05:52:20;46.77;;;6.47;;
4806;SDS011;2417;52.482;13.432;2023-07-08T05:54:48;57.73;;;6.67;;
4806;SDS011;2417;52.482;13.432;2023-07-08T05:57:17;48.60;;;6.00;;
4806;SDS011;2417;52.482;13.432;2023-07-08T05:59:46;52.43;;;6.70;;
4806;SDS011;2417;52.482;13.432;2023-07-08T06:02:16;50.63;;;6.93;;
4806;SDS011;2417;52.482;13.432;2023-07-08T06:04:46;50.30;;;7.03;;
4806;SDS011;2417;52.482;13.432;2023-07-08T06:07:14;50.37;;;6.30;;
4806;SDS011;2417;52.482;13.432;2023-07-08T06:09:43;48.73;;;6.20;;
4806;SDS011;2417;52.482;13.432;2023-07-08T06:12:11;53.20;;;6.40;;
4806;SDS011;2417;52.482;13.432;2023-07-08T06:14:40;51.57;;;7.20;;
4806;SDS011;2417;52.482;13.432;2023-07-08T06:17:09;61.00;;;6.40;;
4806;SDS011;2417;52.482;13.432;2023-07-08T06:19:38;51.40;;;6.57;;
4806;SDS011;2417;52.482;13.432;2023-07-08T06:22:06;53.73;;;5.90;;
4806;SDS011;2417;52.482;13.432;2023-07-08T06:24:54;50.27;;;6.70;;
4806;SDS011;2417;52.482;13.432;2023-07-08T06:27:22;58.20;;;7.00;;
4806;SDS011;2417;52.482;13.432;2023-07-08T06:29:52;47.57;;;6.17;;
4806;SDS011;2417;52.482;13.432;2023-07-08T06:32:21;51.47;;;5.93;;
4806;SDS011;2417;52.482;13.432;2023-07-08T06:34:49;47.77;;;6.00;;
4806;SDS011;2417;52.482;13.432;2023-07-08T06:37:17;43.83;;;5.63;;
4806;SDS011;2417;52.482;13.432;2023-07-08T06:39:45;44.70;;;5.57;;
4806;SDS011;2417;52.482;13.432;2023-07-08T06:42:13;44.43;;;5.80;;
4806;SDS011;2417;52.482;13.432;2023-07-08T06:44:50;44.13;;;5.83;;
4806;SDS011;2417;52.482;13.432;2023-07-08T06:47:20;43.77;;;5.53;;
4806;SDS011;2417;52.482;13.432;2023-07-08T06:49:49;42.07;;;5.30;;
4806;SDS011;2417;52.482;13.432;2023-07-08T06:52:17;44.07;;;5.47;;
4806;SDS011;2417;52.482;13.432;2023-07-08T06:54:47;42.57;;;5.73;;
4806;SDS011;2417;52.482;13.432;2023-07-08T06:57:15;44.10;;;5.00;;
4806;SDS011;2417;52.482;13.432;2023-07-08T06:59:43;43.50;;;5.60;;
4806;SDS011;2417;52.482;13.432;2023-07-08T07:02:13;42.73;;;5.83;;
4806;SDS011;2417;52.482;13.432;2023-07-08T07:04:40;43.53;;;4.93;;
4806;SDS011;2417;52.482;13.432;2023-07-08T07:07:10;41.63;;;4.50;;
4806;SDS011;2417;52.482;13.432;2023-07-08T07:09:38;43.13;;;5.57;;
4806;SDS011;2417;52.482;13.432;2023-07-08T07:12:06;43.83;;;5.90;;
4806;SDS011;2417;52.482;13.432;2023-07-08T07:14:35;44.17;;;4.50;;
4806;SDS011;2417;52.482;13.432;2023-07-08T07:17:06;42.80;;;4.60;;
4806;SDS011;2417;52.482;13.432;2023-07-08T07:19:35;43.40;;;5.00;;
4806;SDS011;2417;52.482;13.432;2023-07-08T07:22:03;42.50;;;4.60;;
4806;SDS011;2417;52.482;13.432;2023-07-08T07:24:32;47.53;;;5.03;;
4806;SDS011;2417;52.482;13.432;2023-07-08T07:27:03;45.30;;;5.10;;
4806;SDS011;2417;52.482;13.432;2023-07-08T07:29:38;42.60;;;5.07;;
4806;SDS011;2417;52.482;13.432;2023-07-08T07:32:06;40.30;;;4.50;;
4806;SDS011;2417;52.482;13.432;2023-07-08T07:34:34;43.57;;;4.70;;
4806;SDS011;2417;52.482;13.432;2023-07-08T07:37:02;39.03;;;4.27;;
4806;SDS011;2417;52.482;13.432;2023-07-08T07:39:31;40.60;;;5.70;;
4806;SDS011;2417;52.482;13.432;2023-07-08T07:42:00;41.70;;;4.33;;
4806;SDS011;2417;52.482;13.432;2023-07-08T07:44:28;43.00;;;4.23;;
4806;SDS011;2417;52.482;13.432;2023-07-08T07:46:56;40.20;;;4.20;;
4806;SDS011;2417;52.482;13.432;2023-07-08T07:49:24;40.97;;;4.50;;
4806;SDS011;2417;52.482;13.432;2023-07-08T07:51:52;38.43;;;4.63;;
4806;SDS011;2417;52.482;13.432;2023-07-08T07:54:20;38.47;;;4.60;;
4806;SDS011;2417;52.482;13.432;2023-07-08T07:56:51;39.37;;;3.50;;
4806;SDS011;2417;52.482;13.432;2023-07-08T07:59:20;38.03;;;3.63;;
4806;SDS011;2417;52.482;13.432;2023-07-08T08:01:49;45.40;;;4.40;;
4806;SDS011;2417;52.482;13.432;2023-07-08T08:04:17;42.40;;;4.33;;
4806;SDS011;2417;52.482;13.432;2023-07-08T08:06:46;40.60;;;4.17;;
4806;SDS011;2417;52.482;13.432;2023-07-08T08:09:14;41.43;;;4.23;;
4806;SDS011;2417;52.482;13.432;2023-07-08T08:11:42;41.97;;;4.10;;
4806;SDS011;2417;52.482;13.432;2023-07-08T08:14:11;43.47;;;3.90;;
4806;SDS011;2417;52.482;13.432;2023-07-08T08:16:39;47.67;;;4.07;;
4806;SDS011;2417;52.482;13.432;2023-07-08T08:19:08;41.37;;;3.77;;
4806;SDS011;2417;52.482;13.432;2023-07-08T08:21:35;41.33;;;3.83;;
4806;SDS011;2417;52.482;13.432;2023-07-08T08:24:04;43.87;;;4.20;;
4806;SDS011;2417;52.482;13.432;2023-07-08T08:26:32;42.97;;;3.93;;
4806;SDS011;2417;52.482;13.432;2023-07-08T08:29:00;46.93;;;4.20;;
4806;SDS011;2417;52.482;13.432;2023-07-08T08:31:29;44.00;;;5.53;;
4806;SDS011;2417;52.482;13.432;2023-07-08T08:33:58;42.40;;;3.57;;
4806;SDS011;2417;52.482;13.432;2023-07-08T08:36:25;43.27;;;4.90;;
4806;SDS011;2417;52.482;13.432;2023-07-08T08:38:53;46.37;;;3.73;;
4806;SDS011;2417;52.482;13.432;2023-07-08T08:41:26;41.77;;;3.70;;
4806;SDS011;2417;52.482;13.432;2023-07-08T08:43:56;44.03;;;3.97;;
4806;SDS011;2417;52.482;13.432;2023-07-08T08:46:26;42.70;;;4.00;;
4806;SDS011;2417;52.482;13.432;2023-07-08T08:48:59;43.47;;;5.20;;
4806;SDS011;2417;52.482;13.432;2023-07-08T08:51:30;42.13;;;3.57;;
4806;SDS011;2417;52.482;13.432;2023-07-08T08:53:59;42.57;;;3.40;;
4806;SDS011;2417;52.482;13.432;2023-07-08T08:56:28;43.60;;;4.20;;
4806;SDS011;2417;52.482;13.432;2023-07-08T08:59:01;41.43;;;3.80;;
4806;SDS011;2417;52.482;13.432;2023-07-08T09:01:31;40.60;;;3.77;;
4806;SDS011;2417;52.482;13.432;2023-07-08T09:04:05;41.87;;;3.50;;
4806;SDS011;2417;52.482;13.432;2023-07-08T09:06:35;43.97;;;3.57;;
4806;SDS011;2417;52.482;13.432;2023-07-08T09:09:09;41.13;;;3.73;;
4806;SDS011;2417;52.482;13.432;2023-07-08T09:11:45;40.70;;;3.20;;
4806;SDS011;2417;52.482;13.432;2023-07-08T09:14:18;41.07;;;3.43;;
4806;SDS011;2417;52.482;13.432;2023-07-08T09:16:49;45.47;;;3.63;;
4806;SDS011;2417;52.482;13.432;2023-07-08T09:19:24;41.90;;;3.47;;
4806;SDS011;2417;52.482;13.432;2023-07-08T09:21:55;40.90;;;3.33;;
4806;SDS011;2417;52.482;13.432;2023-07-08T09:24:27;43.90;;;3.80;;
4806;SDS011;2417;52.482;13.432;2023-07-08T09:26:57;42.87;;;3.53;;
4806;SDS011;2417;52.482;13.432;2023-07-08T09:29:27;42.33;;;3.13;;
4806;SDS011;2417;52.482;13.432;2023-07-08T09:31:56;42.50;;;3.10;;
4806;SDS011;2417;52.482;13.432;2023-07-08T09:34:37;41.17;;;3.33;;
4806;SDS011;2417;52.482;13.432;2023-07-08T09:37:13;43.53;;;3.37;;
4806;SDS011;2417;52.482;13.432;2023-07-08T09:39:47;42.60;;;3.10;;
4806;SDS011;2417;52.482;13.432;2023-07-08T09:42:14;43.10;;;3.50;;
4806;SDS011;2417;52.482;13.432;2023-07-08T09:44:44;40.33;;;3.00;;
4806;SDS011;2417;52.482;13.432;2023-07-08T09:47:20;42.77;;;3.70;;
4806;SDS011;2417;52.482;13.432;2023-07-08T09:49:50;41.20;;;3.23;;
4806;SDS011;2417;52.482;13.432;2023-07-08T09:52:19;42.70;;;3.00;;
4806;SDS011;2417;52.482;13.432;2023-07-08T09:54:46;42.23;;;3.80;;
4806;SDS011;2417;52.482;13.432;2023-07-08T09:57:18;41.20;;;3.00;;
4806;SDS011;2417;52.482;13.432;2023-07-08T09:59:49;43.43;;;4.03;;
4806;SDS011;2417;52.482;13.432;2023-07-08T10:02:25;44.13;;;3.40;;
4806;SDS011;2417;52.482;13.432;2023-07-08T10:04:56;45.47;;;4.47;;
4806;SDS011;2417;52.482;13.432;2023-07-08T10:07:25;43.67;;;3.37;;
4806;SDS011;2417;52.482;13.432;2023-07-08T10:09:55;42.13;;;3.77;;
4806;SDS011;2417;52.482;13.432;2023-07-08T10:12:25;42.17;;;2.87;;
4806;SDS011;2417;52.482;13.432;2023-07-08T10:14:54;43.70;;;4.20;;
4806;SDS011;2417;52.482;13.432;2023-07-08T10:17:24;43.00;;;3.27;;
4806;SDS011;2417;52.482;13.432;2023-07-08T10:19:51;44.70;;;3.63;;
4806;SDS011;2417;52.482;13.432;2023-07-08T10:22:24;42.60;;;3.67;;
4806;SDS011;2417;52.482;13.432;2023-07-08T10:24:58;40.83;;;2.80;;
4806;SDS011;2417;52.482;13.432;2023-07-08T10:27:32;41.27;;;2.90;;
4806;SDS011;2417;52.482;13.432;2023-07-08T10:30:03;42.50;;;4.03;;
4806;SDS011;2417;52.482;13.432;2023-07-08T10:32:37;45.70;;;3.43;;
4806;SDS011;2417;52.482;13.432;2023-07-08T10:35:11;41.53;;;2.80;;
4806;SDS011;2417;52.482;13.432;2023-07-08T10:37:46;42.33;;;3.10;;
4806;SDS011;2417;52.482;13.432;2023-07-08T10:40:21;44.07;;;4.97;;
4806;SDS011;2417;52.482;13.432;2023-07-08T10:42:55;42.73;;;3.07;;
4806;SDS011;2417;52.482;13.432;2023-07-08T10:45:26;43.00;;;3.40;;
4806;SDS011;2417;52.482;13.432;2023-07-08T10:48:02;44.07;;;4.20;;
4806;SDS011;2417;52.482;13.432;2023-07-08T10:50:42;44.20;;;3.57;;
4806;SDS011;2417;52.482;13.432;2023-07-08T10:53:28;43.30;;;4.00;;
4806;SDS011;2417;52.482;13.432;2023-07-08T10:55:58;41.63;;;2.50;;
4806;SDS011;2417;52.482;13.432;2023-07-08T10:58:36;43.00;;;3.30;;
4806;SDS011;2417;52.482;13.432;2023-07-08T11:01:10;42.60;;;3.13;;
4806;SDS011;2417;52.482;13.432;2023-07-08T11:03:46;43.03;;;2.77;;
4806;SDS011;2417;52.482;13.432;2023-07-08T11:06:18;40.90;;;3.03;;
4806;SDS011;2417;52.482;13.432;2023-07-08T11:08:53;40.40;;;2.80;;
4806;SDS011;2417;52.482;13.432;2023-07-08T11:11:27;41.73;;;3.23;;
4806;SDS011;2417;52.482;13.432;2023-07-08T11:13:55;42.80;;;2.90;;
4806;SDS011;2417;52.482;13.432;2023-07-08T11:16:28;44.80;;;2.90;;
4806;SDS011;2417;52.482;13.432;2023-07-08T11:19:04;47.90;;;3.67;;
4806;SDS011;2417;52.482;13.432;2023-07-08T11:21:42;43.40;;;2.80;;
4806;SDS011;2417;52.482;13.432;2023-07-08T11:24:21;43.13;;;3.73;;
4806;SDS011;2417;52.482;13.432;2023-07-08T11:27:14;42.63;;;3.50;;
4806;SDS011;2417;52.482;13.432;2023-07-08T11:29:46;42.70;;;3.60;;
4806;SDS011;2417;52.482;13.432;2023-07-08T11:32:16;44.33;;;3.07;;
4806;SDS011;2417;52.482;13.432;2023-07-08T11:34:46;43.93;;;3.70;;
4806;SDS011;2417;52.482;13.432;2023-07-08T11:37:15;41.30;;;3.10;;
4806;SDS011;2417;52.482;13.432;2023-07-08T11:39:45;44.00;;;4.77;;
4806;SDS011;2417;52.482;13.432;2023-07-08T11:42:16;44.07;;;3.50;;
4806;SDS011;2417;52.482;13.432;2023-07-08T11:44:47;45.17;;;4.53;;
4806;SDS011;2417;52.482;13.432;2023-07-08T11:47:19;46.73;;;4.13;;
4806;SDS011;2417;52.482;13.432;2023-07-08T11:49:50;43.20;;;3.90;;
4806;SDS011;2417;52.482;13.432;2023-07-08T11:52:20;43.40;;;3.27;;
4806;SDS011;2417;52.482;13.432;2023-07-08T11:54:56;44.20;;;3.60;;
4806;SDS011;2417;52.482;13.432;2023-07-08T11:57:27;47.17;;;5.63;;
4806;SDS011;2417;52.482;13.432;2023-07-08T12:00:16;43.97;;;4.83;;
4806;SDS011;2417;52.482;13.432;2023-07-08T12:05:32;48.83;;;6.93;;
4806;SDS011;2417;52.482;13.432;2023-07-08T12:08:02;44.27;;;3.80;;
4806;SDS011;2417;52.482;13.432;2023-07-08T12:10:36;49.20;;;7.20;;
4806;SDS011;2417;52.482;13.432;2023-07-08T12:13:08;48.13;;;5.20;;
4806;SDS011;2417;52.482;13.432;2023-07-08T12:15:38;53.47;;;9.37;;
4806;SDS011;2417;52.482;13.432;2023-07-08T12:18:09;44.40;;;5.70;;
4806;SDS011;2417;52.482;13.432;2023-07-08T12:20:39;82.37;;;30.27;;
4806;SDS011;2417;52.482;13.432;2023-07-08T12:23:09;51.47;;;6.37;;
4806;SDS011;2417;52.482;13.432;2023-07-08T12:25:39;49.63;;;5.00;;
4806;SDS011;2417;52.482;13.432;2023-07-08T12:28:08;42.67;;;4.30;;
4806;SDS011;2417;52.482;13.432;2023-07-08T12:30:39;43.83;;;4.20;;
4806;SDS011;2417;52.482;13.432;2023-07-08T12:33:09;43.20;;;3.20;;
4806;SDS011;2417;52.482;13.432;2023-07-08T12:35:39;45.27;;;3.60;;
4806;SDS011;2417;52.482;13.432;2023-07-08T12:38:11;45.30;;;4.30;;
4806;SDS011;2417;52.482;13.432;2023-07-08T12:40:43;45.80;;;4.10;;
4806;SDS011;2417;52.482;13.432;2023-07-08T12:43:11;45.00;;;3.47;;
4806;SDS011;2417;52.482;13.432;2023-07-08T12:45:39;46.53;;;4.40;;
4806;SDS011;2417;52.482;13.432;2023-07-08T12:48:08;43.30;;;3.30;;
4806;SDS011;2417;52.482;13.432;2023-07-08T12:50:36;49.50;;;4.80;;
4806;SDS011;2417;52.482;13.432;2023-07-08T12:53:04;43.73;;;3.97;;
4806;SDS011;2417;52.482;13.432;2023-07-08T12:55:36;44.50;;;2.90;;
4806;SDS011;2417;52.482;13.432;2023-07-08T12:58:08;42.97;;;3.43;;
4806;SDS011;2417;52.482;13.432;2023-07-08T13:00:38;42.50;;;3.07;;
4806;SDS011;2417;52.482;13.432;2023-07-08T13:03:07;43.77;;;3.87;;
4806;SDS011;2417;52.482;13.432;2023-07-08T13:05:36;43.57;;;3.53;;
4806;SDS011;2417;52.482;13.432;2023-07-08T13:08:06;42.17;;;3.57;;
4806;SDS011;2417;52.482;13.432;2023-07-08T13:10:35;45.17;;;3.90;;
4806;SDS011;2417;52.482;13.432;2023-07-08T13:13:03;44.97;;;3.80;;
4806;SDS011;2417;52.482;13.432;2023-07-08T13:15:34;46.80;;;4.60;;
4806;SDS011;2417;52.482;13.432;2023-07-08T13:18:03;45.87;;;4.00;;
4806;SDS011;2417;52.482;13.432;2023-07-08T13:20:31;44.80;;;4.27;;
4806;SDS011;2417;52.482;13.432;2023-07-08T13:27:14;49.10;;;3.30;;
4806;SDS011;2417;52.482;13.432;2023-07-08T13:29:44;43.23;;;3.40;;
4806;SDS011;2417;52.482;13.432;2023-07-08T13:32:13;46.07;;;5.00;;
4806;SDS011;2417;52.482;13.432;2023-07-08T13:34:41;43.67;;;3.77;;
4806;SDS011;2417;52.482;13.432;2023-07-08T13:37:10;43.60;;;3.50;;
4806;SDS011;2417;52.482;13.432;2023-07-08T13:39:38;43.47;;;3.70;;
4806;SDS011;2417;52.482;13.432;2023-07-08T13:42:10;43.57;;;3.43;;
4806;SDS011;2417;52.482;13.432;2023-07-08T13:44:42;44.40;;;4.43;;
4806;SDS011;2417;52.482;13.432;2023-07-08T13:47:21;43.30;;;3.97;;
4806;SDS011;2417;52.482;13.432;2023-07-08T13:49:55;43.07;;;3.63;;
4806;SDS011;2417;52.482;13.432;2023-07-08T13:52:25;43.40;;;3.43;;
4806;SDS011;2417;52.482;13.432;2023-07-08T13:54:58;44.43;;;5.03;;
4806;SDS011;2417;52.482;13.432;2023-07-08T13:57:32;44.97;;;4.53;;
4806;SDS011;2417;52.482;13.432;2023-07-08T14:00:03;43.50;;;3.23;;
4806;SDS011;2417;52.482;13.432;2023-07-08T14:02:43;52.93;;;4.17;;
4806;SDS011;2417;52.482;13.432;2023-07-08T14:05:15;44.00;;;3.60;;
4806;SDS011;2417;52.482;13.432;2023-07-08T14:07:47;47.90;;;3.90;;
4806;SDS011;2417;52.482;13.432;2023-07-08T14:10:17;44.67;;;4.63;;
4806;SDS011;2417;52.482;13.432;2023-07-08T14:12:46;44.27;;;4.10;;
4806;SDS011;2417;52.482;13.432;2023-07-08T14:15:37;44.53;;;4.43;;
4806;SDS011;2417;52.482;13.432;2023-07-08T14:18:08;43.70;;;4.10;;
4806;SDS011;2417;52.482;13.432;2023-07-08T14:20:39;46.90;;;3.80;;
4806;SDS011;2417;52.482;13.432;2023-07-08T14:23:08;45.80;;;4.00;;
4806;SDS011;2417;52.482;13.432;2023-07-08T14:25:37;45.37;;;4.30;;
4806;SDS011;2417;52.482;13.432;2023-07-08T14:28:05;44.10;;;3.40;;
4806;SDS011;2417;52.482;13.432;2023-07-08T14:30:35;44.77;;;3.57;;
4806;SDS011;2417;52.482;13.432;2023-07-08T14:33:08;46.00;;;3.80;;
4806;SDS011;2417;52.482;13.432;2023-07-08T14:35:38;47.40;;;4.00;;
4806;SDS011;2417;52.482;13.432;2023-07-08T14:38:08;45.43;;;3.20;;
4806;SDS011;2417;52.482;13.432;2023-07-08T14:40:38;45.13;;;3.20;;
4806;SDS011;2417;52.482;13.432;2023-07-08T14:43:11;46.67;;;3.67;;
4806;SDS011;2417;52.482;13.432;2023-07-08T14:45:44;48.50;;;3.97;;
4806;SDS011;2417;52.482;13.432;2023-07-08T14:48:15;46.00;;;3.90;;
4806;SDS011;2417;52.482;13.432;2023-07-08T14:50:44;47.40;;;3.70;;
4806;SDS011;2417;52.482;13.432;2023-07-08T14:53:13;49.47;;;5.00;;
4806;SDS011;2417;52.482;13.432;2023-07-08T14:55:43;44.67;;;3.60;;
4806;SDS011;2417;52.482;13.432;2023-07-08T14:58:15;46.20;;;4.30;;
4806;SDS011;2417;52.482;13.432;2023-07-08T15:00:46;47.53;;;4.43;;
4806;SDS011;2417;52.482;13.432;2023-07-08T15:03:16;47.47;;;5.70;;
4806;SDS011;2417;52.482;13.432;2023-07-08T15:05:46;46.77;;;4.10;;
4806;SDS011;2417;52.482;13.432;2023-07-08T15:08:16;47.43;;;3.80;;
4806;SDS011;2417;52.482;13.432;2023-07-08T15:10:47;47.80;;;4.47;;